Time;durP1;ratioP1;P1;durP2;ratioP2;P2;SDS_P1;SDS_P2;PMS_P1;PMS_P2;Temp;Humidity;BMP_temperature;BMP_pressure;BME280_temperature;BME280_humidity;BME280_pressure;Samples;Min_cycle;Max_cycle;Signal;HPM_P1;HPM_P2
2022/03/27 00:00:22;;;;;;;20.13;10.37;;;9.80;99.90;;;;;;5097500;28;20474;-51
2022/03/27 00:02:48;;;;;;;11.67;6.60;;;9.70;99.90;;;;;;5097813;28;20488;-53
2022/03/27 00:05:15;;;;;;;16.07;9.07;;;9.70;99.90;;;;;;5097908;28;20422;-49
2022/03/27 00:07:42;;;;;;;10.63;7.20;;;9.70;99.90;;;;;;5097614;28;20443;-52
2022/03/27 00:10:09;;;;;;;12.30;7.57;;;9.70;99.90;;;;;;5097228;28;20442;-49
2022/03/27 00:12:36;;;;;;;10.03;7.97;;;9.60;99.90;;;;;;5097289;28;20446;-53
2022/03/27 00:15:05;;;;;;;10.83;8.60;;;9.60;99.90;;;;;;5096934;28;20495;-48
2022/03/27 00:17:34;;;;;;;9.57;7.03;;;9.60;99.90;;;;;;5097556;28;20439;-46
2022/03/27 00:20:02;;;;;;;10.57;6.90;;;9.60;99.90;;;;;;5097100;28;20482;-53
2022/03/27 00:22:29;;;;;;;12.50;7.37;;;9.50;99.90;;;;;;5097805;28;20456;-49
2022/03/27 00:24:56;;;;;;;12.03;7.57;;;9.50;99.90;;;;;;5097756;28;20446;-49
2022/03/27 00:27:22;;;;;;;13.20;9.07;;;9.50;99.90;;;;;;5097766;28;20419;-51
2022/03/27 00:29:49;;;;;;;13.60;6.73;;;9.40;99.90;;;;;;5098098;28;20434;-51
2022/03/27 00:32:17;;;;;;;10.50;7.10;;;9.40;99.90;;;;;;5097991;28;20433;-49
2022/03/27 00:34:44;;;;;;;10.33;7.37;;;9.40;99.90;;;;;;5097581;28;20466;-59
2022/03/27 00:37:11;;;;;;;11.50;7.07;;;9.40;99.90;;;;;;5097338;28;20447;-52
2022/03/27 00:39:38;;;;;;;16.63;9.20;;;9.30;99.90;;;;;;5097480;28;20486;-51
2022/03/27 00:42:05;;;;;;;11.07;8.50;;;9.30;99.90;;;;;;5097490;28;20454;-52
2022/03/27 00:44:32;;;;;;;21.57;8.00;;;9.30;99.90;;;;;;5097338;28;20481;-49
2022/03/27 00:46:59;;;;;;;15.20;9.00;;;9.30;99.90;;;;;;5096834;28;20422;-51
2022/03/27 00:49:28;;;;;;;13.47;7.87;;;9.30;99.90;;;;;;5097447;28;20442;-46
2022/03/27 00:51:55;;;;;;;12.23;8.13;;;9.30;99.90;;;;;;5097722;28;20450;-50
2022/03/27 00:54:22;;;;;;;20.83;8.13;;;9.30;99.90;;;;;;5097016;28;20471;-50
2022/03/27 00:56:49;;;;;;;13.17;8.60;;;9.30;99.90;;;;;;5096996;28;20450;-51
2022/03/27 00:59:15;;;;;;;17.33;8.70;;;9.30;99.90;;;;;;5096818;28;20462;-51
2022/03/27 01:01:44;;;;;;;14.40;8.37;;;9.30;99.90;;;;;;5097039;28;20505;-47
2022/03/27 01:04:11;;;;;;;12.93;7.40;;;9.30;99.90;;;;;;5096995;28;20500;-51
2022/03/27 01:06:41;;;;;;;16.80;9.00;;;9.30;99.90;;;;;;5097086;28;21008;-50
2022/03/27 01:11:54;;;;;;;10.10;8.17;;;9.20;99.90;;;;;;5096660;28;20445;-54
2022/03/27 01:14:26;;;;;;;11.60;8.27;;;9.20;99.90;;;;;;5096948;28;20951;-51
2022/03/27 01:17:01;;;;;;;12.93;8.67;;;9.20;99.90;;;;;;5097099;28;20454;-47
2022/03/27 01:19:29;;;;;;;17.53;9.93;;;9.20;99.90;;;;;;5096648;28;20529;-53
2022/03/27 01:21:57;;;;;;;16.50;9.23;;;9.20;99.90;;;;;;5097043;28;20443;-50
2022/03/27 01:24:24;;;;;;;14.47;9.17;;;9.10;99.90;;;;;;5096567;28;20477;-54
2022/03/27 01:26:51;;;;;;;15.87;9.43;;;9.10;99.90;;;;;;5097121;28;20489;-52
2022/03/27 01:29:18;;;;;;;15.63;8.03;;;9.10;99.90;;;;;;5096592;28;20474;-46
2022/03/27 01:31:47;;;;;;;12.90;7.93;;;9.10;99.90;;;;;;5096268;28;20430;-50
2022/03/27 01:34:16;;;;;;;12.50;8.53;;;9.20;99.90;;;;;;5096924;28;20466;-46
2022/03/27 01:36:43;;;;;;;12.07;7.57;;;9.10;99.90;;;;;;5096912;28;20442;-49
2022/03/27 01:39:13;;;;;;;12.80;8.30;;;9.10;99.90;;;;;;5097036;28;20466;-50
2022/03/27 01:41:41;;;;;;;12.37;8.67;;;9.10;99.90;;;;;;5096283;28;21026;-49
2022/03/27 01:44:10;;;;;;;11.17;8.07;;;9.00;99.90;;;;;;5096377;28;20466;-50
2022/03/27 01:46:39;;;;;;;14.70;8.23;;;9.00;99.90;;;;;;5096731;28;20435;-49
2022/03/27 01:49:08;;;;;;;10.20;7.40;;;8.90;99.90;;;;;;5096790;28;20469;-49
2022/03/27 01:51:36;;;;;;;12.87;8.87;;;8.90;99.90;;;;;;5096916;28;20453;-50
2022/03/27 01:54:05;;;;;;;12.70;8.40;;;8.90;99.90;;;;;;5096536;28;20462;-48
2022/03/27 01:56:37;;;;;;;14.97;8.83;;;8.90;99.90;;;;;;5096579;28;20438;-52
2022/03/27 01:59:05;;;;;;;14.23;8.47;;;8.80;99.90;;;;;;5096879;28;20476;-51
2022/03/27 02:01:32;;;;;;;14.67;9.60;;;8.80;99.90;;;;;;5095920;28;20461;-54
2022/03/27 02:03:59;;;;;;;13.20;8.40;;;8.80;99.90;;;;;;5096459;28;20496;-48
2022/03/27 02:06:26;;;;;;;12.03;9.20;;;8.70;99.90;;;;;;5096270;28;20482;-52
2022/03/27 02:08:53;;;;;;;10.33;7.80;;;8.70;99.90;;;;;;5096175;28;20454;-50
2022/03/27 02:11:20;;;;;;;13.57;8.00;;;8.70;99.90;;;;;;5096544;28;20452;-50
2022/03/27 02:13:48;;;;;;;11.93;7.80;;;8.70;99.90;;;;;;5096880;28;20449;-46
2022/03/27 02:16:15;;;;;;;9.87;7.43;;;8.70;99.90;;;;;;5096612;28;20933;-50
2022/03/27 02:18:42;;;;;;;13.60;7.83;;;8.70;99.90;;;;;;5096118;28;20434;-48
2022/03/27 02:21:09;;;;;;;11.07;7.10;;;8.70;99.90;;;;;;5096322;28;20508;-50
2022/03/27 02:23:36;;;;;;;13.30;9.00;;;8.70;99.90;;;;;;5096518;28;20427;-50
2022/03/27 02:26:03;;;;;;;14.60;8.53;;;8.70;99.90;;;;;;5096018;28;20454;-49
2022/03/27 02:28:30;;;;;;;15.63;8.73;;;8.70;99.90;;;;;;5096168;28;20445;-50
2022/03/27 02:30:58;;;;;;;14.17;8.83;;;8.60;99.90;;;;;;5096567;28;20434;-52
2022/03/27 02:33:25;;;;;;;12.07;8.47;;;8.60;99.90;;;;;;5096072;28;20422;-50
2022/03/27 02:35:52;;;;;;;17.03;8.30;;;8.60;99.90;;;;;;5096799;28;20442;-50
2022/03/27 02:38:19;;;;;;;12.57;8.07;;;8.60;99.90;;;;;;5096555;28;20442;-51
2022/03/27 02:40:46;;;;;;;9.83;7.70;;;8.60;99.90;;;;;;5096291;28;20470;-50
2022/03/27 02:43:13;;;;;;;16.03;8.83;;;8.60;99.90;;;;;;5096461;28;20455;-51
2022/03/27 02:45:40;;;;;;;13.60;9.00;;;8.60;99.90;;;;;;5096353;28;20492;-54
2022/03/27 02:48:09;;;;;;;15.37;8.57;;;8.60;99.90;;;;;;5096282;28;20461;-49
2022/03/27 02:50:39;;;;;;;12.60;9.43;;;8.60;99.90;;;;;;5096335;28;20419;-52
2022/03/27 02:53:05;;;;;;;13.23;9.57;;;8.50;99.90;;;;;;5096348;28;20451;-51
2022/03/27 02:55:32;;;;;;;14.70;9.57;;;8.50;99.90;;;;;;5096499;28;20434;-49
2022/03/27 02:58:03;;;;;;;13.27;8.97;;;8.50;99.90;;;;;;5095812;28;20468;-53
2022/03/27 03:00:30;;;;;;;15.70;9.33;;;8.50;99.90;;;;;;5095643;28;20490;-54
2022/03/27 03:02:59;;;;;;;19.00;9.87;;;8.50;99.90;;;;;;5096313;28;20468;-50
2022/03/27 03:05:27;;;;;;;17.27;10.23;;;8.50;99.90;;;;;;5095753;28;20471;-48
2022/03/27 03:07:55;;;;;;;14.53;9.90;;;8.50;99.90;;;;;;5096147;28;20465;-49
2022/03/27 03:10:22;;;;;;;14.73;9.47;;;8.50;99.90;;;;;;5096026;28;20438;-49
2022/03/27 03:12:48;;;;;;;14.97;8.57;;;8.50;99.90;;;;;;5096055;28;20472;-49
2022/03/27 03:15:18;;;;;;;18.43;9.80;;;8.40;99.90;;;;;;5095771;28;20492;-47
2022/03/27 03:17:45;;;;;;;15.80;8.03;;;8.30;99.90;;;;;;5095739;28;20439;-47
2022/03/27 03:20:12;;;;;;;15.20;9.27;;;8.20;99.90;;;;;;5098259;28;20574;-51
2022/03/27 03:22:44;;;;;;;16.47;9.53;;;8.20;99.90;;;;;;5099902;28;20426;-51
2022/03/27 03:25:11;;;;;;;14.97;9.63;;;8.10;99.90;;;;;;5099358;28;20462;-49
2022/03/27 03:27:38;;;;;;;14.07;9.07;;;8.10;99.90;;;;;;5099370;28;20446;-55
2022/03/27 03:30:06;;;;;;;13.83;9.63;;;8.00;99.90;;;;;;5099375;28;20438;-54
2022/03/27 03:32:35;;;;;;;18.07;9.57;;;8.00;99.90;;;;;;5099475;28;20442;-49
2022/03/27 03:35:05;;;;;;;14.27;9.60;;;7.90;99.90;;;;;;5099514;28;20462;-52
2022/03/27 03:37:32;;;;;;;15.43;10.83;;;7.90;99.90;;;;;;5099536;28;20426;-50
2022/03/27 03:40:00;;;;;;;17.90;11.60;;;7.80;99.90;;;;;;5099513;28;20465;-48
2022/03/27 03:42:27;;;;;;;14.87;9.27;;;7.80;99.90;;;;;;5098943;28;20458;-47
2022/03/27 03:44:54;;;;;;;14.33;10.07;;;7.80;99.90;;;;;;5099665;28;20476;-52
2022/03/27 03:47:21;;;;;;;13.47;8.40;;;7.80;99.90;;;;;;5099392;28;20429;-52
2022/03/27 03:49:47;;;;;;;14.47;9.00;;;7.70;99.90;;;;;;5099153;28;20499;-53
2022/03/27 03:52:16;;;;;;;15.97;9.43;;;7.70;99.90;;;;;;5099127;28;20419;-53
2022/03/27 03:54:44;;;;;;;13.90;9.90;;;7.60;99.90;;;;;;5099083;28;20464;-47
2022/03/27 03:57:12;;;;;;;15.00;10.10;;;7.60;99.90;;;;;;5098916;28;20435;-52
2022/03/27 03:59:39;;;;;;;13.50;9.50;;;7.50;99.90;;;;;;5098781;28;20514;-50
2022/03/27 04:02:07;;;;;;;13.37;8.80;;;7.50;99.90;;;;;;5098627;28;20490;-49
2022/03/27 04:04:38;;;;;;;13.00;9.00;;;7.40;99.90;;;;;;5099100;28;20419;-47
2022/03/27 04:07:07;;;;;;;14.73;9.80;;;7.40;99.90;;;;;;5099220;28;20504;-52
2022/03/27 04:09:37;;;;;;;15.07;10.03;;;7.30;99.90;;;;;;5099250;28;20464;-52
2022/03/27 04:12:05;;;;;;;18.47;10.53;;;7.30;99.90;;;;;;5099477;28;20423;-51
2022/03/27 04:14:36;;;;;;;16.73;9.57;;;7.30;99.90;;;;;;5098819;28;20450;-52
2022/03/27 04:17:03;;;;;;;15.13;10.33;;;7.40;99.90;;;;;;5099168;28;20442;-49
2022/03/27 04:19:29;;;;;;;16.13;10.10;;;7.30;99.90;;;;;;5098920;28;20476;-47
2022/03/27 04:21:56;;;;;;;15.43;9.43;;;7.30;99.90;;;;;;5099297;28;20512;-43
2022/03/27 04:24:25;;;;;;;14.23;10.57;;;7.20;99.90;;;;;;5099055;28;20452;-48
2022/03/27 04:26:51;;;;;;;16.07;10.50;;;7.10;99.90;;;;;;5099019;28;20461;-46
2022/03/27 04:29:18;;;;;;;19.97;10.43;;;7.10;99.90;;;;;;5098854;28;20745;-48
2022/03/27 04:31:46;;;;;;;13.50;9.40;;;7.40;99.90;;;;;;5098114;28;20454;-46
2022/03/27 04:34:13;;;;;;;17.13;10.00;;;7.00;99.90;;;;;;5098984;28;20446;-48
2022/03/27 04:36:40;;;;;;;16.30;10.90;;;6.90;99.90;;;;;;5098941;28;20572;-54
2022/03/27 04:39:08;;;;;;;20.70;10.37;;;6.90;99.90;;;;;;5098904;28;20471;-52
2022/03/27 04:41:34;;;;;;;14.17;9.60;;;6.80;99.90;;;;;;5098736;28;20462;-53
2022/03/27 04:44:01;;;;;;;13.13;9.17;;;6.80;99.90;;;;;;5099155;28;20510;-51
2022/03/27 04:46:28;;;;;;;19.40;10.60;;;6.70;99.90;;;;;;5098378;28;20466;-47
2022/03/27 04:48:56;;;;;;;13.90;9.77;;;6.70;99.90;;;;;;5098599;28;20457;-51
2022/03/27 04:51:23;;;;;;;16.30;9.67;;;6.70;99.90;;;;;;5098384;28;20468;-50
2022/03/27 04:53:50;;;;;;;17.07;11.53;;;6.70;99.90;;;;;;5098645;28;20460;-57
2022/03/27 04:56:17;;;;;;;13.83;10.23;;;6.60;99.90;;;;;;5098014;28;20457;-56
2022/03/27 04:58:44;;;;;;;16.77;11.83;;;6.60;99.90;;;;;;5098058;28;20446;-54
2022/03/27 05:01:11;;;;;;;19.63;11.50;;;6.60;99.90;;;;;;5098191;28;20478;-48
2022/03/27 05:03:37;;;;;;;15.50;11.20;;;6.70;99.90;;;;;;5098000;28;20458;-48
2022/03/27 05:06:05;;;;;;;17.03;12.97;;;6.70;99.90;;;;;;5097947;28;20453;-50
2022/03/27 05:08:33;;;;;;;18.27;12.30;;;6.70;99.90;;;;;;5098177;28;20427;-52
2022/03/27 05:11:00;;;;;;;17.60;12.20;;;6.70;99.90;;;;;;5098544;28;20474;-50
2022/03/27 05:13:27;;;;;;;19.37;11.50;;;6.70;99.90;;;;;;5097522;28;20501;-55
2022/03/27 05:15:53;;;;;;;18.57;13.87;;;6.80;99.90;;;;;;5097680;28;20455;-46
2022/03/27 05:18:21;;;;;;;17.73;11.90;;;6.80;99.90;;;;;;5097177;28;20441;-50
2022/03/27 05:20:47;;;;;;;22.27;13.40;;;6.80;99.90;;;;;;5097355;28;20462;-49
2022/03/27 05:23:15;;;;;;;33.17;14.17;;;6.80;99.90;;;;;;5097223;28;20438;-53
2022/03/27 05:25:45;;;;;;;21.77;13.73;;;6.90;99.90;;;;;;5097353;28;20470;-49
2022/03/27 05:28:15;;;;;;;19.73;12.67;;;6.90;99.90;;;;;;5097641;28;20469;-47
2022/03/27 05:30:43;;;;;;;21.80;14.07;;;6.90;99.90;;;;;;5097460;28;20459;-46
2022/03/27 05:33:10;;;;;;;22.80;14.07;;;6.90;99.90;;;;;;5097336;28;20453;-49
2022/03/27 05:35:37;;;;;;;23.90;14.20;;;6.90;99.90;;;;;;5097140;28;20426;-46
2022/03/27 05:38:03;;;;;;;24.30;15.03;;;6.90;99.90;;;;;;5097231;28;20427;-48
2022/03/27 05:40:31;;;;;;;21.27;12.73;;;7.00;99.90;;;;;;5097151;28;20442;-53
2022/03/27 05:43:00;;;;;;;23.60;13.90;;;7.00;99.90;;;;;;5096065;28;20471;-51
2022/03/27 05:45:27;;;;;;;19.17;13.27;;;7.00;99.90;;;;;;5097508;28;20447;-45
2022/03/27 05:47:54;;;;;;;16.80;12.50;;;7.00;99.90;;;;;;5096993;28;20431;-50
2022/03/27 05:50:22;;;;;;;17.50;12.50;;;7.10;99.90;;;;;;5097128;28;20442;-49
2022/03/27 05:52:49;;;;;;;22.53;13.50;;;7.20;99.90;;;;;;5096844;28;20426;-52
2022/03/27 05:55:22;;;;;;;18.43;11.63;;;7.30;99.90;;;;;;5096770;28;20450;-51
2022/03/27 05:57:51;;;;;;;23.17;14.50;;;7.30;99.90;;;;;;5096859;28;20434;-49
2022/03/27 06:00:20;;;;;;;19.60;13.57;;;7.30;99.90;;;;;;5096944;28;20442;-50
2022/03/27 06:02:48;;;;;;;19.40;12.77;;;7.40;99.90;;;;;;5096747;28;20477;-48
2022/03/27 06:05:15;;;;;;;19.80;13.33;;;7.40;99.90;;;;;;5096892;28;20444;-50
2022/03/27 06:07:43;;;;;;;25.47;15.73;;;7.40;99.90;;;;;;5096935;28;20453;-56
2022/03/27 06:10:11;;;;;;;19.87;12.80;;;7.50;99.90;;;;;;5096630;28;20454;-48
2022/03/27 06:12:37;;;;;;;18.60;13.00;;;7.50;99.90;;;;;;5096845;28;20907;-45
2022/03/27 06:15:06;;;;;;;18.20;13.93;;;7.60;99.90;;;;;;5096885;28;20430;-51
2022/03/27 06:17:39;;;;;;;18.60;12.70;;;7.60;99.90;;;;;;5096885;28;20477;-48
2022/03/27 06:20:07;;;;;;;19.87;12.57;;;7.70;99.90;;;;;;5096860;28;20429;-50
2022/03/27 06:22:34;;;;;;;20.47;14.27;;;7.70;99.90;;;;;;5096664;28;20499;-53
2022/03/27 06:25:01;;;;;;;17.60;12.10;;;7.70;99.90;;;;;;5096649;28;20427;-51
2022/03/27 06:27:28;;;;;;;19.03;13.27;;;7.80;99.90;;;;;;5096134;28;20481;-53
2022/03/27 06:29:55;;;;;;;20.53;13.63;;;7.80;99.90;;;;;;5096675;28;20438;-51
2022/03/27 06:32:26;;;;;;;19.70;13.87;;;7.90;99.90;;;;;;5096757;28;20443;-52
2022/03/27 06:34:55;;;;;;;25.13;13.00;;;7.80;99.90;;;;;;5096420;28;20435;-52
2022/03/27 06:37:22;;;;;;;16.00;11.93;;;7.90;99.90;;;;;;5097071;28;20470;-47
2022/03/27 06:39:49;;;;;;;21.47;14.73;;;7.90;99.90;;;;;;5096604;28;20462;-49
2022/03/27 06:42:16;;;;;;;19.17;12.20;;;7.90;99.90;;;;;;5096571;28;20538;-47
2022/03/27 06:44:43;;;;;;;21.87;13.53;;;7.90;99.90;;;;;;5096693;28;20450;-49
2022/03/27 06:47:09;;;;;;;21.27;14.10;;;7.90;99.90;;;;;;5096107;28;20500;-51
2022/03/27 06:49:37;;;;;;;30.87;15.93;;;7.90;99.90;;;;;;5096399;28;20438;-50
2022/03/27 06:52:05;;;;;;;23.50;14.70;;;8.00;99.90;;;;;;5095791;28;20462;-49
2022/03/27 06:54:32;;;;;;;22.10;14.73;;;8.00;99.90;;;;;;5099228;28;20446;-48
2022/03/27 06:56:59;;;;;;;19.33;13.50;;;8.10;99.90;;;;;;5100447;28;20500;-49
2022/03/27 06:59:26;;;;;;;18.00;14.30;;;8.20;99.90;;;;;;5099922;28;20426;-49
2022/03/27 07:04:38;;;;;;;19.87;14.07;;;8.30;99.90;;;;;;5100222;28;20413;-48
2022/03/27 07:07:05;;;;;;;22.47;15.70;;;8.30;99.90;;;;;;5100154;28;20450;-52
2022/03/27 07:09:31;;;;;;;18.70;13.60;;;8.40;99.90;;;;;;5100222;28;20449;-47
2022/03/27 07:11:58;;;;;;;23.37;14.20;;;8.50;99.90;;;;;;5099847;28;20454;-47
2022/03/27 07:14:25;;;;;;;19.20;12.87;;;8.60;99.90;;;;;;5099602;28;20425;-49
2022/03/27 07:16:51;;;;;;;18.47;14.40;;;8.60;99.90;;;;;;5099319;28;20459;-51
2022/03/27 07:19:18;;;;;;;19.43;13.33;;;8.70;99.90;;;;;;5099491;28;20462;-52
2022/03/27 07:21:47;;;;;;;14.67;12.00;;;8.70;99.90;;;;;;5099616;28;20504;-49
2022/03/27 07:24:14;;;;;;;26.70;14.70;;;8.80;99.90;;;;;;5100027;28;20436;-50
2022/03/27 07:26:43;;;;;;;21.20;11.50;;;8.90;99.90;;;;;;5099966;28;20470;-49
2022/03/27 07:29:11;;;;;;;18.23;11.37;;;9.00;99.90;;;;;;5100073;28;20422;-45
2022/03/27 07:31:38;;;;;;;19.33;12.23;;;9.00;99.90;;;;;;5099737;28;20450;-51
2022/03/27 07:34:04;;;;;;;18.30;11.90;;;9.00;99.90;;;;;;5099828;28;20460;-49
2022/03/27 07:36:31;;;;;;;21.07;12.47;;;9.00;99.90;;;;;;5099301;28;20457;-47
2022/03/27 07:38:59;;;;;;;16.87;11.47;;;9.10;99.90;;;;;;5099173;28;20467;-50
2022/03/27 07:41:26;;;;;;;17.80;12.05;;;9.20;99.90;;;;;;5098858;28;20801;-51
2022/03/27 07:43:52;;;;;;;17.87;11.93;;;9.30;99.90;;;;;;5099507;28;20433;-51
2022/03/27 07:46:21;;;;;;;24.03;16.27;;;9.40;99.90;;;;;;5099097;28;20499;-51
2022/03/27 07:48:48;;;;;;;22.40;12.80;;;9.40;99.90;;;;;;5099145;28;20431;-52
2022/03/27 07:51:16;;;;;;;23.70;13.37;;;9.50;99.90;;;;;;5098720;28;20454;-48
2022/03/27 07:53:43;;;;;;;20.90;13.70;;;9.60;99.90;;;;;;5098679;28;20457;-49
2022/03/27 07:56:11;;;;;;;18.07;11.07;;;9.60;99.90;;;;;;5098290;28;20468;-44
2022/03/27 07:58:37;;;;;;;16.10;12.50;;;9.70;99.90;;;;;;5098575;28;20439;-47
2022/03/27 08:01:04;;;;;;;22.23;11.77;;;9.80;99.90;;;;;;5098771;28;20465;-52
2022/03/27 08:03:31;;;;;;;17.90;11.97;;;9.90;99.90;;;;;;5098734;28;20490;-49
2022/03/27 08:05:58;;;;;;;15.50;12.13;;;10.00;99.90;;;;;;5097874;28;20442;-53
2022/03/27 08:08:24;;;;;;;18.23;12.47;;;10.10;99.90;;;;;;5098855;28;20462;-53
2022/03/27 08:10:51;;;;;;;20.43;12.57;;;10.20;99.90;;;;;;5098325;28;20472;-50
2022/03/27 08:13:19;;;;;;;17.97;12.50;;;10.30;99.90;;;;;;5098218;28;20458;-52
2022/03/27 08:15:46;;;;;;;21.40;14.10;;;10.30;99.90;;;;;;5097559;28;20446;-50
2022/03/27 08:18:13;;;;;;;21.47;14.33;;;10.40;99.90;;;;;;5097478;28;20476;-52
2022/03/27 08:20:41;;;;;;;19.43;13.37;;;10.60;99.90;;;;;;5097479;28;20435;-50
2022/03/27 08:23:08;;;;;;;45.07;22.27;;;10.70;99.90;;;;;;5097473;28;20477;-54
2022/03/27 08:28:21;;;;;;;17.53;11.33;;;12.30;99.90;;;;;;5098272;28;20461;-49
2022/03/27 08:30:49;;;;;;;14.50;12.00;;;14.30;99.90;;;;;;5098601;28;20438;-51
2022/03/27 08:33:18;;;;;;;11.93;10.00;;;16.10;99.90;;;;;;5098216;28;20478;-52
2022/03/27 08:35:46;;;;;;;15.73;11.83;;;17.90;99.90;;;;;;5098564;28;20435;-53
2022/03/27 08:38:14;;;;;;;18.90;12.60;;;19.40;99.90;;;;;;5098156;28;20462;-51
2022/03/27 08:40:41;;;;;;;15.10;12.67;;;20.60;99.90;;;;;;5098378;28;20438;-55
2022/03/27 08:43:10;;;;;;;14.00;11.83;;;21.40;96.60;;;;;;5098272;28;20489;-54
2022/03/27 08:45:39;;;;;;;16.90;11.50;;;21.90;93.00;;;;;;5098311;28;20458;-55
2022/03/27 08:48:06;;;;;;;11.57;10.37;;;22.50;90.20;;;;;;5098086;28;20473;-52
2022/03/27 08:50:45;;;;;;;14.20;12.70;;;22.70;86.20;;;;;;5098196;28;20465;-56
2022/03/27 08:53:14;;;;;;;13.23;11.60;;;23.00;82.90;;;;;;5098192;28;20524;-53
2022/03/27 08:55:48;;;;;;;19.27;12.37;;;23.30;78.80;;;;;;5098151;28;20454;-53
2022/03/27 08:58:15;;;;;;;12.10;9.50;;;23.80;75.20;;;;;;5098323;28;20466;-53
2022/03/27 09:00:44;;;;;;;11.50;9.07;;;24.10;72.20;;;;;;5097744;28;20461;-52
2022/03/27 09:03:11;;;;;;;9.90;8.90;;;23.90;70.50;;;;;;5097801;28;20482;-49
2022/03/27 09:05:39;;;;;;;10.70;8.30;;;24.00;69.70;;;;;;5097073;28;20426;-49
2022/03/27 09:08:09;;;;;;;11.50;7.90;;;24.00;68.70;;;;;;5097568;28;20435;-53
2022/03/27 09:10:36;;;;;;;11.40;8.80;;;23.90;67.60;;;;;;5097705;28;20445;-54
2022/03/27 09:13:06;;;;;;;9.13;7.87;;;23.60;67.80;;;;;;5097922;28;20484;-50
2022/03/27 09:15:33;;;;;;;16.73;11.83;;;23.50;67.50;;;;;;5097750;28;20425;-48
2022/03/27 09:18:08;;;;;;;14.80;11.07;;;23.60;66.90;;;;;;5097303;28;20475;-50
2022/03/27 09:20:42;;;;;;;9.20;8.20;;;23.60;66.30;;;;;;5097352;28;20437;-52
2022/03/27 09:23:23;;;;;;;8.33;6.87;;;23.80;65.50;;;;;;5146053;22;20508;-47
2022/03/27 09:25:54;;;;;;;8.13;6.23;;;23.90;64.40;;;;;;5037073;28;20477;-52
2022/03/27 09:28:34;;;;;;;9.77;7.73;;;23.80;63.90;;;;;;5036555;28;20477;-55
2022/03/27 09:31:03;;;;;;;10.43;7.50;;;22.80;64.50;;;;;;5037281;28;20421;-52
2022/03/27 09:33:46;;;;;;;7.83;6.23;;;21.90;67.80;;;;;;5036828;28;20461;-54
2022/03/27 09:36:14;;;;;;;9.13;7.60;;;22.00;68.40;;;;;;5037038;28;20429;-50
2022/03/27 09:38:41;;;;;;;9.77;7.10;;;21.90;69.00;;;;;;5036413;28;20519;-53
2022/03/27 09:41:31;;;;;;;8.63;7.10;;;21.90;69.40;;;;;;5035347;28;20429;-54
2022/03/27 09:44:02;;;;;;;11.80;7.17;;;22.00;70.10;;;;;;5028056;28;20499;-53
2022/03/27 09:46:53;;;;;;;14.17;7.40;;;22.70;67.90;;;;;;5027478;28;20445;-54
2022/03/27 09:49:25;;;;;;;8.07;7.10;;;23.40;64.30;;;;;;5027096;28;20473;-55
2022/03/27 09:51:54;;;;;;;9.70;7.10;;;23.50;63.30;;;;;;5026975;28;20450;-55
2022/03/27 09:54:21;;;;;;;11.00;6.60;;;22.80;63.60;;;;;;5026701;28;20449;-56
2022/03/27 09:56:48;;;;;;;7.13;6.43;;;22.70;64.50;;;;;;5027563;28;20449;-56
2022/03/27 09:59:29;;;;;;;8.10;6.10;;;23.20;64.60;;;;;;5027354;28;20461;-55
2022/03/27 10:02:20;;;;;;;7.53;6.50;;;23.60;61.30;;;;;;5027320;28;20624;-55
2022/03/27 10:05:00;;;;;;;7.83;6.60;;;22.30;62.00;;;;;;5029017;28;20421;-57
2022/03/27 10:07:32;;;;;;;9.80;6.17;;;21.20;64.70;;;;;;5029625;28;20523;-55
2022/03/27 10:09:59;;;;;;;10.13;6.40;;;21.00;65.50;;;;;;5029683;28;20429;-55
2022/03/27 10:12:29;;;;;;;9.73;7.10;;;21.50;65.10;;;;;;5029525;28;20518;-52
2022/03/27 10:14:59;;;;;;;12.23;7.80;;;22.10;64.40;;;;;;5028331;28;20476;-56
2022/03/27 10:17:27;;;;;;;10.03;7.40;;;22.80;63.40;;;;;;5028157;28;20510;-51
2022/03/27 10:20:00;;;;;;;7.47;6.20;;;23.20;62.40;;;;;;5027556;28;20441;-57
2022/03/27 10:22:29;;;;;;;7.80;7.00;;;23.70;60.80;;;;;;5026089;28;20440;-56
2022/03/27 10:25:01;;;;;;;7.83;7.03;;;23.90;59.50;;;;;;5020224;28;20910;-51
2022/03/27 10:27:31;;;;;;;9.07;6.90;;;23.80;59.20;;;;;;5019999;28;20784;-55
2022/03/27 10:29:59;;;;;;;10.03;7.33;;;23.90;59.60;;;;;;5020374;28;20788;-52
2022/03/27 10:32:25;;;;;;;10.07;7.87;;;24.10;58.50;;;;;;5021516;28;20456;-54
2022/03/27 10:35:05;;;;;;;8.20;6.87;;;24.00;58.80;;;;;;5015527;28;20449;-55
2022/03/27 10:37:39;;;;;;;8.47;6.80;;;23.80;58.60;;;;;;5015146;28;20437;-55
2022/03/27 10:40:13;;;;;;;7.27;5.80;;;23.60;58.10;;;;;;5015334;28;20433;-58
2022/03/27 10:42:50;;;;;;;10.87;7.47;;;23.50;58.10;;;;;;5015214;28;20534;-49
2022/03/27 10:45:19;;;;;;;8.50;6.80;;;23.20;58.40;;;;;;5015125;28;20437;-53
2022/03/27 10:48:09;;;;;;;9.93;6.30;;;22.40;58.80;;;;;;5014932;28;20476;-55
2022/03/27 10:50:48;;;;;;;11.30;8.17;;;21.20;61.00;;;;;;5015229;28;20433;-55
2022/03/27 10:53:15;;;;;;;10.20;6.53;;;20.10;62.90;;;;;;5014746;28;20492;-57
2022/03/27 10:55:43;;;;;;;10.90;7.33;;;19.30;65.30;;;;;;5015059;28;20789;-57
2022/03/27 10:58:33;;;;;;;9.77;6.50;;;18.90;67.50;;;;;;5014825;28;20437;-54
2022/03/27 11:01:03;;;;;;;8.90;5.50;;;19.00;67.20;;;;;;5011996;28;20461;-52
2022/03/27 11:03:48;;;;;;;9.60;5.73;;;19.30;67.60;;;;;;5014983;28;20493;-56
2022/03/27 11:06:28;;;;;;;8.17;5.53;;;19.70;67.30;;;;;;5014774;28;20887;-55
2022/03/27 11:08:58;;;;;;;9.87;7.50;;;19.80;65.60;;;;;;5014797;28;20472;-55
2022/03/27 11:11:50;;;;;;;7.20;5.60;;;19.70;64.80;;;;;;5014935;28;20487;-54
2022/03/27 11:14:50;;;;;;;8.43;5.93;;;19.70;65.40;;;;;;5015122;28;20465;-56
2022/03/27 11:17:17;;;;;;;8.23;5.27;;;19.50;66.30;;;;;;5014844;28;20426;-52
2022/03/27 11:19:46;;;;;;;7.10;5.53;;;19.30;65.50;;;;;;5014555;28;20483;-55
2022/03/27 11:22:49;;;;;;;7.67;6.37;;;19.00;66.60;;;;;;5014555;28;20459;-55
2022/03/27 11:25:34;;;;;;;8.00;5.80;;;18.90;67.60;;;;;;5014472;28;20479;-52
2022/03/27 11:28:10;;;;;;;6.20;5.00;;;19.00;66.00;;;;;;5014621;28;20449;-53
2022/03/27 11:30:38;;;;;;;5.80;4.63;;;18.90;64.70;;;;;;5014368;28;20771;-53
2022/03/27 11:33:16;;;;;;;6.60;4.30;;;18.60;64.60;;;;;;5014441;28;20455;-52
2022/03/27 11:35:59;;;;;;;4.20;3.80;;;18.50;65.80;;;;;;5014361;28;20879;-56
2022/03/27 11:38:29;;;;;;;8.30;4.70;;;18.50;65.80;;;;;;5014125;28;20595;-56
2022/03/27 11:40:56;;;;;;;4.80;4.03;;;18.50;67.30;;;;;;5016435;28;20437;-50
2022/03/27 11:43:33;;;;;;;5.23;4.60;;;18.50;67.50;;;;;;5017928;28;20514;-53
2022/03/27 11:46:01;;;;;;;5.80;4.73;;;18.40;66.80;;;;;;5017946;28;20448;-49
2022/03/27 11:48:28;;;;;;;5.87;4.50;;;18.10;67.40;;;;;;5018070;28;20441;-51
2022/03/27 11:50:56;;;;;;;5.93;4.37;;;17.90;68.20;;;;;;5017879;28;20441;-55
2022/03/27 11:53:35;;;;;;;7.00;4.43;;;17.90;67.90;;;;;;5017917;28;20459;-57
2022/03/27 11:56:07;;;;;;;8.47;4.23;;;17.80;68.50;;;;;;5017870;28;20507;-57
2022/03/27 11:58:35;;;;;;;5.40;4.30;;;17.90;68.70;;;;;;5017774;28;20457;-51
2022/03/27 12:01:05;;;;;;;7.70;4.97;;;17.90;68.30;;;;;;5017691;28;20540;-56
2022/03/27 12:03:32;;;;;;;5.80;4.00;;;17.70;68.20;;;;;;5017561;28;20481;-53
2022/03/27 12:06:06;;;;;;;7.20;3.50;;;17.60;68.30;;;;;;5017712;28;20468;-53
2022/03/27 12:08:35;;;;;;;6.03;4.20;;;17.60;68.70;;;;;;5017745;28;20433;-52
2022/03/27 12:11:06;;;;;;;4.50;3.87;;;17.60;68.50;;;;;;5017401;28;20475;-51
2022/03/27 12:13:37;;;;;;;4.80;4.00;;;17.60;68.50;;;;;;5017590;28;20429;-57
2022/03/27 12:16:04;;;;;;;8.67;5.30;;;17.50;69.10;;;;;;5017253;28;20453;-56
2022/03/27 12:18:32;;;;;;;5.50;3.90;;;17.40;69.40;;;;;;5017371;28;20472;-59
2022/03/27 12:21:01;;;;;;;4.97;3.50;;;17.30;70.00;;;;;;5017418;28;20453;-52
2022/03/27 12:23:29;;;;;;;6.73;4.33;;;17.50;70.40;;;;;;5017186;28;20481;-56
2022/03/27 12:26:03;;;;;;;5.33;4.83;;;17.60;70.90;;;;;;5017283;28;20452;-55
2022/03/27 12:31:25;;;;;;;6.43;4.20;;;17.70;70.30;;;;;;5016957;28;20417;-49
2022/03/27 12:33:55;;;;;;;6.80;4.17;;;17.70;70.10;;;;;;5016712;28;20771;-53
2022/03/27 12:36:22;;;;;;;5.97;3.80;;;17.70;70.70;;;;;;5017195;28;20821;-55
2022/03/27 12:38:48;;;;;;;5.80;4.20;;;17.70;69.80;;;;;;5017138;28;20456;-55
2022/03/27 12:41:37;;;;;;;5.83;4.30;;;17.70;70.80;;;;;;5016738;28;20445;-51
2022/03/27 12:44:05;;;;;;;6.23;4.00;;;17.70;71.10;;;;;;5017157;28;20516;-52
2022/03/27 12:46:32;;;;;;;3.80;3.37;;;17.80;70.60;;;;;;5016855;28;20437;-55
2022/03/27 12:49:00;;;;;;;3.90;3.23;;;17.90;69.90;;;;;;5016478;28;20452;-53
2022/03/27 12:51:27;;;;;;;4.87;3.47;;;17.80;69.80;;;;;;5016446;28;20459;-56
2022/03/27 12:54:02;;;;;;;5.90;3.80;;;17.80;69.70;;;;;;5016690;28;20977;-56
2022/03/27 12:56:31;;;;;;;5.20;3.87;;;17.90;69.80;;;;;;5016721;28;20480;-56
2022/03/27 12:58:58;;;;;;;7.23;4.10;;;17.90;69.70;;;;;;5016340;28;20897;-62
2022/03/27 13:01:25;;;;;;;4.87;3.13;;;17.90;69.40;;;;;;5016769;28;20480;-55
2022/03/27 13:04:04;;;;;;;3.50;3.03;;;17.90;69.40;;;;;;5018892;28;20488;-53